Aviation Digital Data Service (ADDS)

Output produced by METARs form (1442 UTC 19 January 2019)
found at http://www.aviationweather.gov/metar/data/
 
METAR text: VTCC 191430Z 30004KT 9999 FEW035 22/17 Q1016 NOSIG
Conditions at: VTCC (CHIANG MAI(CIV/A, TH) observed 1430 UTC 19 January 2019
Temperature: 22.0°C (72°F)
Dewpoint: 17.0°C (63°F) [RH = 73%]
Pressure (altimeter): 30.00 inches Hg (1016.0 mb)
Winds: from the WNW (300 degrees) at 5 MPH (4 knots; 2.1 m/s)
Visibility: 6 or more miles (10+ km)
Ceiling: at least 12,000 feet AGL
Clouds: few clouds at 3500 feet AGL
Weather: no significant weather observed at this time

METAR text: VTCC 191400Z VRB02KT 9999 FEW035 23/17 Q1016 NOSIG
Conditions at: VTCC (CHIANG MAI(CIV/A, TH) observed 1400 UTC 19 January 2019
Temperature: 23.0°C (73°F)
Dewpoint: 17.0°C (63°F) [RH = 69%]
Pressure (altimeter): 30.00 inches Hg (1016.0 mb)
Winds: variable direction winds at 2 MPH (2 knots; 1.0 m/s)
Visibility: 6 or more miles (10+ km)
Ceiling: at least 12,000 feet AGL
Clouds: few clouds at 3500 feet AGL
Weather: no significant weather observed at this time

METAR text: VTCC 191330Z VRB02KT 9999 FEW035 23/17 Q1015 NOSIG
Conditions at: VTCC (CHIANG MAI(CIV/A, TH) observed 1330 UTC 19 January 2019
Temperature: 23.0°C (73°F)
Dewpoint: 17.0°C (63°F) [RH = 69%]
Pressure (altimeter): 29.97 inches Hg (1015.0 mb)
Winds: variable direction winds at 2 MPH (2 knots; 1.0 m/s)
Visibility: 6 or more miles (10+ km)
Ceiling: at least 12,000 feet AGL
Clouds: few clouds at 3500 feet AGL
Weather: no significant weather observed at this time

METAR text: VTCC 191300Z 29004KT 250V330 9999 FEW035 24/18 Q1015 NOSIG
Conditions at: VTCC (CHIANG MAI(CIV/A, TH) observed 1300 UTC 19 January 2019
Temperature: 24.0°C (75°F)
Dewpoint: 18.0°C (64°F) [RH = 69%]
Pressure (altimeter): 29.97 inches Hg (1015.0 mb)
Winds: from the WNW (290 degrees) at 5 MPH (4 knots; 2.1 m/s)
Visibility: 6 or more miles (10+ km)
Ceiling: at least 12,000 feet AGL
Clouds: few clouds at 3500 feet AGL
Weather: no significant weather observed at this time

METAR text: VTCC 191230Z 00000KT 9999 FEW035 24/18 Q1014 NOSIG
Conditions at: VTCC (CHIANG MAI(CIV/A, TH) observed 1230 UTC 19 January 2019
Temperature: 24.0°C (75°F)
Dewpoint: 18.0°C (64°F) [RH = 69%]
Pressure (altimeter): 29.94 inches Hg (1014.0 mb)
Winds: calm
Visibility: 6 or more miles (10+ km)
Ceiling: at least 12,000 feet AGL
Clouds: few clouds at 3500 feet AGL
Weather: no significant weather observed at this time

METAR text: VTCC 191200Z 00000KT 9999 FEW035 26/18 Q1014 NOSIG
Conditions at: VTCC (CHIANG MAI(CIV/A, TH) observed 1200 UTC 19 January 2019
Temperature: 26.0°C (79°F)
Dewpoint: 18.0°C (64°F) [RH = 61%]
Pressure (altimeter): 29.94 inches Hg (1014.0 mb)
Winds: calm
Visibility: 6 or more miles (10+ km)
Ceiling: at least 12,000 feet AGL
Clouds: few clouds at 3500 feet AGL
Weather: no significant weather observed at this time

METAR text: VTCC 191130Z 34003KT 9999 FEW035 27/17 Q1014 NOSIG
Conditions at: VTCC (CHIANG MAI(CIV/A, TH) observed 1130 UTC 19 January 2019
Temperature: 27.0°C (81°F)
Dewpoint: 17.0°C (63°F) [RH = 54%]
Pressure (altimeter): 29.94 inches Hg (1014.0 mb)
Winds: from the NNW (340 degrees) at 3 MPH (3 knots; 1.5 m/s)
Visibility: 6 or more miles (10+ km)
Ceiling: at least 12,000 feet AGL
Clouds: few clouds at 3500 feet AGL
Weather: no significant weather observed at this time

METAR text: VTCC 191100Z 06004KT 9999 FEW035 29/16 Q1013 NOSIG
Conditions at: VTCC (CHIANG MAI(CIV/A, TH) observed 1100 UTC 19 January 2019
Temperature: 29.0°C (84°F)
Dewpoint: 16.0°C (61°F) [RH = 45%]
Pressure (altimeter): 29.91 inches Hg (1013.0 mb)
Winds: from the ENE (60 degrees) at 5 MPH (4 knots; 2.1 m/s)
Visibility: 6 or more miles (10+ km)
Ceiling: at least 12,000 feet AGL
Clouds: few clouds at 3500 feet AGL
Weather: no significant weather observed at this time

METAR text: VTCC 191030Z 06004KT 9999 SCT035 29/16 Q1013 NOSIG
Conditions at: VTCC (CHIANG MAI(CIV/A, TH) observed 1030 UTC 19 January 2019
Temperature: 29.0°C (84°F)
Dewpoint: 16.0°C (61°F) [RH = 45%]
Pressure (altimeter): 29.91 inches Hg (1013.0 mb)
Winds: from the ENE (60 degrees) at 5 MPH (4 knots; 2.1 m/s)
Visibility: 6 or more miles (10+ km)
Ceiling: at least 12,000 feet AGL
Clouds: scattered clouds at 3500 feet AGL
Weather: no significant weather observed at this time

METAR text: VTCC 191000Z 03004KT 9999 FEW035 31/17 Q1013 NOSIG
Conditions at: VTCC (CHIANG MAI(CIV/A, TH) observed 1000 UTC 19 January 2019
Temperature: 31.0°C (88°F)
Dewpoint: 17.0°C (63°F) [RH = 43%]
Pressure (altimeter): 29.91 inches Hg (1013.0 mb)
Winds: from the NNE (30 degrees) at 5 MPH (4 knots; 2.1 m/s)
Visibility: 6 or more miles (10+ km)
Ceiling: at least 12,000 feet AGL
Clouds: few clouds at 3500 feet AGL
Weather: no significant weather observed at this time

METAR text: VTCC 190930Z VRB02KT 9999 FEW035 31/17 Q1013 NOSIG
Conditions at: VTCC (CHIANG MAI(CIV/A, TH) observed 0930 UTC 19 January 2019
Temperature: 31.0°C (88°F)
Dewpoint: 17.0°C (63°F) [RH = 43%]
Pressure (altimeter): 29.91 inches Hg (1013.0 mb)
Winds: variable direction winds at 2 MPH (2 knots; 1.0 m/s)
Visibility: 6 or more miles (10+ km)
Ceiling: at least 12,000 feet AGL
Clouds: few clouds at 3500 feet AGL
Weather: no significant weather observed at this time

METAR text: VTCC 190900Z VRB02KT 9999 FEW035 31/17 Q1013 NOSIG
Conditions at: VTCC (CHIANG MAI(CIV/A, TH) observed 0900 UTC 19 January 2019
Temperature: 31.0°C (88°F)
Dewpoint: 17.0°C (63°F) [RH = 43%]
Pressure (altimeter): 29.91 inches Hg (1013.0 mb)
Winds: variable direction winds at 2 MPH (2 knots; 1.0 m/s)
Visibility: 6 or more miles (10+ km)
Ceiling: at least 12,000 feet AGL
Clouds: few clouds at 3500 feet AGL
Weather: no significant weather observed at this time

METAR text: VTCC 190830Z 12004KT 9999 FEW035 31/17 Q1013 NOSIG
Conditions at: VTCC (CHIANG MAI(CIV/A, TH) observed 0830 UTC 19 January 2019
Temperature: 31.0°C (88°F)
Dewpoint: 17.0°C (63°F) [RH = 43%]
Pressure (altimeter): 29.91 inches Hg (1013.0 mb)
Winds: from the ESE (120 degrees) at 5 MPH (4 knots; 2.1 m/s)
Visibility: 6 or more miles (10+ km)
Ceiling: at least 12,000 feet AGL
Clouds: few clouds at 3500 feet AGL
Weather: no significant weather observed at this time

METAR text: VTCC 190800Z 36003KT 9999 FEW035 31/17 Q1013 NOSIG
Conditions at: VTCC (CHIANG MAI(CIV/A, TH) observed 0800 UTC 19 January 2019
Temperature: 31.0°C (88°F)
Dewpoint: 17.0°C (63°F) [RH = 43%]
Pressure (altimeter): 29.91 inches Hg (1013.0 mb)
Winds: from the N (360 degrees) at 3 MPH (3 knots; 1.5 m/s)
Visibility: 6 or more miles (10+ km)
Ceiling: at least 12,000 feet AGL
Clouds: few clouds at 3500 feet AGL
Weather: no significant weather observed at this time

METAR text: VTCC 190730Z VRB02KT 9999 FEW035 31/17 Q1014 NOSIG
Conditions at: VTCC (CHIANG MAI(CIV/A, TH) observed 0730 UTC 19 January 2019
Temperature: 31.0°C (88°F)
Dewpoint: 17.0°C (63°F) [RH = 43%]
Pressure (altimeter): 29.94 inches Hg (1014.0 mb)
Winds: variable direction winds at 2 MPH (2 knots; 1.0 m/s)
Visibility: 6 or more miles (10+ km)
Ceiling: at least 12,000 feet AGL
Clouds: few clouds at 3500 feet AGL
Weather: no significant weather observed at this time

METAR text: VTCC 190700Z 16004KT 9999 FEW035 30/17 Q1015 NOSIG
Conditions at: VTCC (CHIANG MAI(CIV/A, TH) observed 0700 UTC 19 January 2019
Temperature: 30.0°C (86°F)
Dewpoint: 17.0°C (63°F) [RH = 46%]
Pressure (altimeter): 29.97 inches Hg (1015.0 mb)
Winds: from the SSE (160 degrees) at 5 MPH (4 knots; 2.1 m/s)
Visibility: 6 or more miles (10+ km)
Ceiling: at least 12,000 feet AGL
Clouds: few clouds at 3500 feet AGL
Weather: no significant weather observed at this time

METAR text: VTCC 190630Z 12005KT 9999 FEW035 30/17 Q1015 NOSIG
Conditions at: VTCC (CHIANG MAI(CIV/A, TH) observed 0630 UTC 19 January 2019
Temperature: 30.0°C (86°F)
Dewpoint: 17.0°C (63°F) [RH = 46%]
Pressure (altimeter): 29.97 inches Hg (1015.0 mb)
Winds: from the ESE (120 degrees) at 6 MPH (5 knots; 2.6 m/s)
Visibility: 6 or more miles (10+ km)
Ceiling: at least 12,000 feet AGL
Clouds: few clouds at 3500 feet AGL
Weather: no significant weather observed at this time

METAR text: VTCC 190600Z 16004KT 9999 FEW035 30/18 Q1016 NOSIG
Conditions at: VTCC (CHIANG MAI(CIV/A, TH) observed 0600 UTC 19 January 2019
Temperature: 30.0°C (86°F)
Dewpoint: 18.0°C (64°F) [RH = 49%]
Pressure (altimeter): 30.00 inches Hg (1016.0 mb)
Winds: from the SSE (160 degrees) at 5 MPH (4 knots; 2.1 m/s)
Visibility: 6 or more miles (10+ km)
Ceiling: at least 12,000 feet AGL
Clouds: few clouds at 3500 feet AGL
Weather: no significant weather observed at this time

METAR text: VTCC 190530Z 09004KT 9999 FEW035 29/18 Q1016 NOSIG
Conditions at: VTCC (CHIANG MAI(CIV/A, TH) observed 0530 UTC 19 January 2019
Temperature: 29.0°C (84°F)
Dewpoint: 18.0°C (64°F) [RH = 52%]
Pressure (altimeter): 30.00 inches Hg (1016.0 mb)
Winds: from the E (90 degrees) at 5 MPH (4 knots; 2.1 m/s)
Visibility: 6 or more miles (10+ km)
Ceiling: at least 12,000 feet AGL
Clouds: few clouds at 3500 feet AGL
Weather: no significant weather observed at this time

METAR text: VTCC 190500Z 08003KT 9999 FEW035 28/19 Q1017 NOSIG
Conditions at: VTCC (CHIANG MAI(CIV/A, TH) observed 0500 UTC 19 January 2019
Temperature: 28.0°C (82°F)
Dewpoint: 19.0°C (66°F) [RH = 58%]
Pressure (altimeter): 30.03 inches Hg (1017.0 mb)
Winds: from the E (80 degrees) at 3 MPH (3 knots; 1.5 m/s)
Visibility: 6 or more miles (10+ km)
Ceiling: at least 12,000 feet AGL
Clouds: few clouds at 3500 feet AGL
Weather: no significant weather observed at this time

METAR text: VTCC 190430Z 35003KT 9999 FEW035 27/19 Q1018 NOSIG
Conditions at: VTCC (CHIANG MAI(CIV/A, TH) observed 0430 UTC 19 January 2019
Temperature: 27.0°C (81°F)
Dewpoint: 19.0°C (66°F) [RH = 62%]
Pressure (altimeter): 30.06 inches Hg (1018.0 mb)
Winds: from the N (350 degrees) at 3 MPH (3 knots; 1.5 m/s)
Visibility: 6 or more miles (10+ km)
Ceiling: at least 12,000 feet AGL
Clouds: few clouds at 3500 feet AGL
Weather: no significant weather observed at this time

METAR text: VTCC 190400Z 27003KT 9999 FEW035 26/19 Q1018 NOSIG
Conditions at: VTCC (CHIANG MAI(CIV/A, TH) observed 0400 UTC 19 January 2019
Temperature: 26.0°C (79°F)
Dewpoint: 19.0°C (66°F) [RH = 65%]
Pressure (altimeter): 30.06 inches Hg (1018.0 mb)
Winds: from the W (270 degrees) at 3 MPH (3 knots; 1.5 m/s)
Visibility: 6 or more miles (10+ km)
Ceiling: at least 12,000 feet AGL
Clouds: few clouds at 3500 feet AGL
Weather: no significant weather observed at this time

METAR text: VTCC 190330Z VRB02KT 9999 FEW035 25/19 Q1019 NOSIG
Conditions at: VTCC (CHIANG MAI(CIV/A, TH) observed 0330 UTC 19 January 2019
Temperature: 25.0°C (77°F)
Dewpoint: 19.0°C (66°F) [RH = 69%]
Pressure (altimeter): 30.09 inches Hg (1019.0 mb)
Winds: variable direction winds at 2 MPH (2 knots; 1.0 m/s)
Visibility: 6 or more miles (10+ km)
Ceiling: at least 12,000 feet AGL
Clouds: few clouds at 3500 feet AGL
Weather: no significant weather observed at this time

METAR text: VTCC 190300Z 00000KT 9999 FEW035 24/19 Q1019 NOSIG
Conditions at: VTCC (CHIANG MAI(CIV/A, TH) observed 0300 UTC 19 January 2019
Temperature: 24.0°C (75°F)
Dewpoint: 19.0°C (66°F) [RH = 74%]
Pressure (altimeter): 30.09 inches Hg (1019.0 mb)
Winds: calm
Visibility: 6 or more miles (10+ km)
Ceiling: at least 12,000 feet AGL
Clouds: few clouds at 3500 feet AGL
Weather: no significant weather observed at this time

METAR text: VTCC 190230Z 00000KT 9999 FEW035 23/19 Q1019 NOSIG
Conditions at: VTCC (CHIANG MAI(CIV/A, TH) observed 0230 UTC 19 January 2019
Temperature: 23.0°C (73°F)
Dewpoint: 19.0°C (66°F) [RH = 78%]
Pressure (altimeter): 30.09 inches Hg (1019.0 mb)
Winds: calm
Visibility: 6 or more miles (10+ km)
Ceiling: at least 12,000 feet AGL
Clouds: few clouds at 3500 feet AGL
Weather: no significant weather observed at this time

METAR text: VTCC 190200Z VRB02KT 9999 FEW035 23/19 Q1019 NOSIG
Conditions at: VTCC (CHIANG MAI(CIV/A, TH) observed 0200 UTC 19 January 2019
Temperature: 23.0°C (73°F)
Dewpoint: 19.0°C (66°F) [RH = 78%]
Pressure (altimeter): 30.09 inches Hg (1019.0 mb)
Winds: variable direction winds at 2 MPH (2 knots; 1.0 m/s)
Visibility: 6 or more miles (10+ km)
Ceiling: at least 12,000 feet AGL
Clouds: few clouds at 3500 feet AGL
Weather: no significant weather observed at this time

METAR text: VTCC 190130Z 00000KT 9999 FEW035 21/19 Q1018 NOSIG
Conditions at: VTCC (CHIANG MAI(CIV/A, TH) observed 0130 UTC 19 January 2019
Temperature: 21.0°C (70°F)
Dewpoint: 19.0°C (66°F) [RH = 88%]
Pressure (altimeter): 30.06 inches Hg (1018.0 mb)
Winds: calm
Visibility: 6 or more miles (10+ km)
Ceiling: at least 12,000 feet AGL
Clouds: few clouds at 3500 feet AGL
Weather: no significant weather observed at this time

METAR text: VTCC 190100Z 00000KT 9999 FEW035 20/18 Q1017 NOSIG
Conditions at: VTCC (CHIANG MAI(CIV/A, TH) observed 0100 UTC 19 January 2019
Temperature: 20.0°C (68°F)
Dewpoint: 18.0°C (64°F) [RH = 88%]
Pressure (altimeter): 30.03 inches Hg (1017.0 mb)
Winds: calm
Visibility: 6 or more miles (10+ km)
Ceiling: at least 12,000 feet AGL
Clouds: few clouds at 3500 feet AGL
Weather: no significant weather observed at this time

METAR text: VTCC 190030Z VRB02KT 9999 FEW035 18/18 Q1017 NOSIG
Conditions at: VTCC (CHIANG MAI(CIV/A, TH) observed 0030 UTC 19 January 2019
Temperature: 18.0°C (64°F)
Dewpoint: 18.0°C (64°F) [RH = 100%]
Pressure (altimeter): 30.03 inches Hg (1017.0 mb)
Winds: variable direction winds at 2 MPH (2 knots; 1.0 m/s)
Visibility: 6 or more miles (10+ km)
Ceiling: at least 12,000 feet AGL
Clouds: few clouds at 3500 feet AGL
Weather: no significant weather observed at this time

METAR text: VTCC 190000Z 00000KT9999 FEW035 18/18 Q1017 NOSIG
Conditions at: VTCC (CHIANG MAI(CIV/A, TH) observed 0000 UTC 19 January 2019
Temperature: 18.0°C (64°F)
Dewpoint: 18.0°C (64°F) [RH = 100%]
Pressure (altimeter): 30.03 inches Hg (1017.0 mb)
Winds: missing
Visibility: 6 or more miles (10+ km)
Ceiling: at least 12,000 feet AGL
Clouds: few clouds at 3500 feet AGL
Weather: no significant weather observed at this time

METAR text: VTCC 182330Z 25003KT 9999 FEW035 19/18 Q1016 NOSIG
Conditions at: VTCC (CHIANG MAI(CIV/A, TH) observed 2330 UTC 18 January 2019
Temperature: 19.0°C (66°F)
Dewpoint: 18.0°C (64°F) [RH = 94%]
Pressure (altimeter): 30.00 inches Hg (1016.0 mb)
Winds: from the WSW (250 degrees) at 3 MPH (3 knots; 1.5 m/s)
Visibility: 6 or more miles (10+ km)
Ceiling: at least 12,000 feet AGL
Clouds: few clouds at 3500 feet AGL
Weather: no significant weather observed at this time

METAR text: VTCC 182300Z 00000KT 9999 FEW035 19/18 Q1016 NOSIG
Conditions at: VTCC (CHIANG MAI(CIV/A, TH) observed 2300 UTC 18 January 2019
Temperature: 19.0°C (66°F)
Dewpoint: 18.0°C (64°F) [RH = 94%]
Pressure (altimeter): 30.00 inches Hg (1016.0 mb)
Winds: calm
Visibility: 6 or more miles (10+ km)
Ceiling: at least 12,000 feet AGL
Clouds: few clouds at 3500 feet AGL
Weather: no significant weather observed at this time

METAR text: VTCC 182230Z 29003KT 9999 FEW035 19/18 Q1016 NOSIG
Conditions at: VTCC (CHIANG MAI(CIV/A, TH) observed 2230 UTC 18 January 2019
Temperature: 19.0°C (66°F)
Dewpoint: 18.0°C (64°F) [RH = 94%]
Pressure (altimeter): 30.00 inches Hg (1016.0 mb)
Winds: from the WNW (290 degrees) at 3 MPH (3 knots; 1.5 m/s)
Visibility: 6 or more miles (10+ km)
Ceiling: at least 12,000 feet AGL
Clouds: few clouds at 3500 feet AGL
Weather: no significant weather observed at this time

METAR text: VTCC 182200Z 00000KT 9999 FEW035 19/18 Q1016 NOSIG
Conditions at: VTCC (CHIANG MAI(CIV/A, TH) observed 2200 UTC 18 January 2019
Temperature: 19.0°C (66°F)
Dewpoint: 18.0°C (64°F) [RH = 94%]
Pressure (altimeter): 30.00 inches Hg (1016.0 mb)
Winds: calm
Visibility: 6 or more miles (10+ km)
Ceiling: at least 12,000 feet AGL
Clouds: few clouds at 3500 feet AGL
Weather: no significant weather observed at this time

METAR text: VTCC 182130Z 00000KT 9999 FEW035 19/18 Q1016 NOSIG
Conditions at: VTCC (CHIANG MAI(CIV/A, TH) observed 2130 UTC 18 January 2019
Temperature: 19.0°C (66°F)
Dewpoint: 18.0°C (64°F) [RH = 94%]
Pressure (altimeter): 30.00 inches Hg (1016.0 mb)
Winds: calm
Visibility: 6 or more miles (10+ km)
Ceiling: at least 12,000 feet AGL
Clouds: few clouds at 3500 feet AGL
Weather: no significant weather observed at this time

METAR text: VTCC 182100Z VRB02KT 9999 FEW035 19/18 Q1016 NOSIG
Conditions at: VTCC (CHIANG MAI(CIV/A, TH) observed 2100 UTC 18 January 2019
Temperature: 19.0°C (66°F)
Dewpoint: 18.0°C (64°F) [RH = 94%]
Pressure (altimeter): 30.00 inches Hg (1016.0 mb)
Winds: variable direction winds at 2 MPH (2 knots; 1.0 m/s)
Visibility: 6 or more miles (10+ km)
Ceiling: at least 12,000 feet AGL
Clouds: few clouds at 3500 feet AGL
Weather: no significant weather observed at this time

METAR text: VTCC 182030Z 00000KT 9999 FEW035 19/18 Q1016 NOSIG
Conditions at: VTCC (CHIANG MAI(CIV/A, TH) observed 2030 UTC 18 January 2019
Temperature: 19.0°C (66°F)
Dewpoint: 18.0°C (64°F) [RH = 94%]
Pressure (altimeter): 30.00 inches Hg (1016.0 mb)
Winds: calm
Visibility: 6 or more miles (10+ km)
Ceiling: at least 12,000 feet AGL
Clouds: few clouds at 3500 feet AGL
Weather: no significant weather observed at this time

METAR text: VTCC 182000Z 00000KT 9999 FEW035 20/18 Q1016 NOSIG
Conditions at: VTCC (CHIANG MAI(CIV/A, TH) observed 2000 UTC 18 January 2019
Temperature: 20.0°C (68°F)
Dewpoint: 18.0°C (64°F) [RH = 88%]
Pressure (altimeter): 30.00 inches Hg (1016.0 mb)
Winds: calm
Visibility: 6 or more miles (10+ km)
Ceiling: at least 12,000 feet AGL
Clouds: few clouds at 3500 feet AGL
Weather: no significant weather observed at this time

METAR text: VTCC 181930Z 00000KT 9999 FEW035 20/18 Q1016 NOSIG
Conditions at: VTCC (CHIANG MAI(CIV/A, TH) observed 1930 UTC 18 January 2019
Temperature: 20.0°C (68°F)
Dewpoint: 18.0°C (64°F) [RH = 88%]
Pressure (altimeter): 30.00 inches Hg (1016.0 mb)
Winds: calm
Visibility: 6 or more miles (10+ km)
Ceiling: at least 12,000 feet AGL
Clouds: few clouds at 3500 feet AGL
Weather: no significant weather observed at this time

METAR text: VTCC 181900Z 00000KT 9999 FEW035 21/18 Q1016 NOSIG
Conditions at: VTCC (CHIANG MAI(CIV/A, TH) observed 1900 UTC 18 January 2019
Temperature: 21.0°C (70°F)
Dewpoint: 18.0°C (64°F) [RH = 83%]
Pressure (altimeter): 30.00 inches Hg (1016.0 mb)
Winds: calm
Visibility: 6 or more miles (10+ km)
Ceiling: at least 12,000 feet AGL
Clouds: few clouds at 3500 feet AGL
Weather: no significant weather observed at this time

METAR text: VTCC 181830Z 00000KT 9999 FEW035 21/18 Q1017 NOSIG
Conditions at: VTCC (CHIANG MAI(CIV/A, TH) observed 1830 UTC 18 January 2019
Temperature: 21.0°C (70°F)
Dewpoint: 18.0°C (64°F) [RH = 83%]
Pressure (altimeter): 30.03 inches Hg (1017.0 mb)
Winds: calm
Visibility: 6 or more miles (10+ km)
Ceiling: at least 12,000 feet AGL
Clouds: few clouds at 3500 feet AGL
Weather: no significant weather observed at this time

METAR text: VTCC 181800Z 00000KT 9999 FEW035 22/19 Q1017 NOSIG
Conditions at: VTCC (CHIANG MAI(CIV/A, TH) observed 1800 UTC 18 January 2019
Temperature: 22.0°C (72°F)
Dewpoint: 19.0°C (66°F) [RH = 83%]
Pressure (altimeter): 30.03 inches Hg (1017.0 mb)
Winds: calm
Visibility: 6 or more miles (10+ km)
Ceiling: at least 12,000 feet AGL
Clouds: few clouds at 3500 feet AGL
Weather: no significant weather observed at this time

METAR text: VTCC 181730Z VRB02KT 9999 FEW035 21/19 Q1017 NOSIG
Conditions at: VTCC (CHIANG MAI(CIV/A, TH) observed 1730 UTC 18 January 2019
Temperature: 21.0°C (70°F)
Dewpoint: 19.0°C (66°F) [RH = 88%]
Pressure (altimeter): 30.03 inches Hg (1017.0 mb)
Winds: variable direction winds at 2 MPH (2 knots; 1.0 m/s)
Visibility: 6 or more miles (10+ km)
Ceiling: at least 12,000 feet AGL
Clouds: few clouds at 3500 feet AGL
Weather: no significant weather observed at this time

METAR text: VTCC 181700Z VRB02KT 9999 FEW035 22/18 Q1017 NOSIG
Conditions at: VTCC (CHIANG MAI(CIV/A, TH) observed 1700 UTC 18 January 2019
Temperature: 22.0°C (72°F)
Dewpoint: 18.0°C (64°F) [RH = 78%]
Pressure (altimeter): 30.03 inches Hg (1017.0 mb)
Winds: variable direction winds at 2 MPH (2 knots; 1.0 m/s)
Visibility: 6 or more miles (10+ km)
Ceiling: at least 12,000 feet AGL
Clouds: few clouds at 3500 feet AGL
Weather: no significant weather observed at this time

METAR text: VTCC 181630Z VRB02KT 9999 FEW035 21/18 Q1017 NOSIG
Conditions at: VTCC (CHIANG MAI(CIV/A, TH) observed 1630 UTC 18 January 2019
Temperature: 21.0°C (70°F)
Dewpoint: 18.0°C (64°F) [RH = 83%]
Pressure (altimeter): 30.03 inches Hg (1017.0 mb)
Winds: variable direction winds at 2 MPH (2 knots; 1.0 m/s)
Visibility: 6 or more miles (10+ km)
Ceiling: at least 12,000 feet AGL
Clouds: few clouds at 3500 feet AGL
Weather: no significant weather observed at this time

METAR text: VTCC 181600Z 00000KT 9999 FEW035 22/19 Q1017 NOSIG
Conditions at: VTCC (CHIANG MAI(CIV/A, TH) observed 1600 UTC 18 January 2019
Temperature: 22.0°C (72°F)
Dewpoint: 19.0°C (66°F) [RH = 83%]
Pressure (altimeter): 30.03 inches Hg (1017.0 mb)
Winds: calm
Visibility: 6 or more miles (10+ km)
Ceiling: at least 12,000 feet AGL
Clouds: few clouds at 3500 feet AGL
Weather: no significant weather observed at this time

METAR text: VTCC 181530Z VRB02KT 9999 FEW035 22/18 Q1017 NOSIG
Conditions at: VTCC (CHIANG MAI(CIV/A, TH) observed 1530 UTC 18 January 2019
Temperature: 22.0°C (72°F)
Dewpoint: 18.0°C (64°F) [RH = 78%]
Pressure (altimeter): 30.03 inches Hg (1017.0 mb)
Winds: variable direction winds at 2 MPH (2 knots; 1.0 m/s)
Visibility: 6 or more miles (10+ km)
Ceiling: at least 12,000 feet AGL
Clouds: few clouds at 3500 feet AGL
Weather: no significant weather observed at this time

METAR text: VTCC 181500Z 00000KT 9999 FEW035 22/18 Q1017 NOSIG
Conditions at: VTCC (CHIANG MAI(CIV/A, TH) observed 1500 UTC 18 January 2019
Temperature: 22.0°C (72°F)
Dewpoint: 18.0°C (64°F) [RH = 78%]
Pressure (altimeter): 30.03 inches Hg (1017.0 mb)
Winds: calm
Visibility: 6 or more miles (10+ km)
Ceiling: at least 12,000 feet AGL
Clouds: few clouds at 3500 feet AGL
Weather: no significant weather observed at this time

METAR text: VTCC 181430Z VRB02KT 9999 FEW035 22/18 Q1016 NOSIG
Conditions at: VTCC (CHIANG MAI(CIV/A, TH) observed 1430 UTC 18 January 2019
Temperature: 22.0°C (72°F)
Dewpoint: 18.0°C (64°F) [RH = 78%]
Pressure (altimeter): 30.00 inches Hg (1016.0 mb)
Winds: variable direction winds at 2 MPH (2 knots; 1.0 m/s)
Visibility: 6 or more miles (10+ km)
Ceiling: at least 12,000 feet AGL
Clouds: few clouds at 3500 feet AGL
Weather: no significant weather observed at this time

METAR text: VTCC 181400Z 29003KT 9999 FEW035 23/18 Q1016 NOSIG
Conditions at: VTCC (CHIANG MAI(CIV/A, TH) observed 1400 UTC 18 January 2019
Temperature: 23.0°C (73°F)
Dewpoint: 18.0°C (64°F) [RH = 73%]
Pressure (altimeter): 30.00 inches Hg (1016.0 mb)
Winds: from the WNW (290 degrees) at 3 MPH (3 knots; 1.5 m/s)
Visibility: 6 or more miles (10+ km)
Ceiling: at least 12,000 feet AGL
Clouds: few clouds at 3500 feet AGL
Weather: no significant weather observed at this time

METAR text: VTCC 181330Z 24003KT 9999 FEW035 24/18 Q1016 NOSIG
Conditions at: VTCC (CHIANG MAI(CIV/A, TH) observed 1330 UTC 18 January 2019
Temperature: 24.0°C (75°F)
Dewpoint: 18.0°C (64°F) [RH = 69%]
Pressure (altimeter): 30.00 inches Hg (1016.0 mb)
Winds: from the WSW (240 degrees) at 3 MPH (3 knots; 1.5 m/s)
Visibility: 6 or more miles (10+ km)
Ceiling: at least 12,000 feet AGL
Clouds: few clouds at 3500 feet AGL
Weather: no significant weather observed at this time

METAR text: VTCC 181300Z 00000KT 9999 FEW035 24/18 Q1015 NOSIG
Conditions at: VTCC (CHIANG MAI(CIV/A, TH) observed 1300 UTC 18 January 2019
Temperature: 24.0°C (75°F)
Dewpoint: 18.0°C (64°F) [RH = 69%]
Pressure (altimeter): 29.97 inches Hg (1015.0 mb)
Winds: calm
Visibility: 6 or more miles (10+ km)
Ceiling: at least 12,000 feet AGL
Clouds: few clouds at 3500 feet AGL
Weather: no significant weather observed at this time

METAR text: VTCC 181230Z 00000KT 9999 FEW035 24/18 Q1015 NOSIG
Conditions at: VTCC (CHIANG MAI(CIV/A, TH) observed 1230 UTC 18 January 2019
Temperature: 24.0°C (75°F)
Dewpoint: 18.0°C (64°F) [RH = 69%]
Pressure (altimeter): 29.97 inches Hg (1015.0 mb)
Winds: calm
Visibility: 6 or more miles (10+ km)
Ceiling: at least 12,000 feet AGL
Clouds: few clouds at 3500 feet AGL
Weather: no significant weather observed at this time

METAR text: VTCC 181200Z 26004KT 9999 SCT035 25/18 Q1014 NOSIG
Conditions at: VTCC (CHIANG MAI(CIV/A, TH) observed 1200 UTC 18 January 2019
Temperature: 25.0°C (77°F)
Dewpoint: 18.0°C (64°F) [RH = 65%]
Pressure (altimeter): 29.94 inches Hg (1014.0 mb)
Winds: from the W (260 degrees) at 5 MPH (4 knots; 2.1 m/s)
Visibility: 6 or more miles (10+ km)
Ceiling: at least 12,000 feet AGL
Clouds: scattered clouds at 3500 feet AGL
Weather: no significant weather observed at this time

METAR text: VTCC 181130Z 27004KT 9999 SCT035 26/18 Q1014 NOSIG
Conditions at: VTCC (CHIANG MAI(CIV/A, TH) observed 1130 UTC 18 January 2019
Temperature: 26.0°C (79°F)
Dewpoint: 18.0°C (64°F) [RH = 61%]
Pressure (altimeter): 29.94 inches Hg (1014.0 mb)
Winds: from the W (270 degrees) at 5 MPH (4 knots; 2.1 m/s)
Visibility: 6 or more miles (10+ km)
Ceiling: at least 12,000 feet AGL
Clouds: scattered clouds at 3500 feet AGL
Weather: no significant weather observed at this time

METAR text: VTCC 181100Z 27004KT 9999 SCT035 28/18 Q1014 NOSIG
Conditions at: VTCC (CHIANG MAI(CIV/A, TH) observed 1100 UTC 18 January 2019
Temperature: 28.0°C (82°F)
Dewpoint: 18.0°C (64°F) [RH = 55%]
Pressure (altimeter): 29.94 inches Hg (1014.0 mb)
Winds: from the W (270 degrees) at 5 MPH (4 knots; 2.1 m/s)
Visibility: 6 or more miles (10+ km)
Ceiling: at least 12,000 feet AGL
Clouds: scattered clouds at 3500 feet AGL
Weather: no significant weather observed at this time

METAR text: VTCC 181030Z 26004KT 9999 SCT035 29/18 Q1014 NOSIG
Conditions at: VTCC (CHIANG MAI(CIV/A, TH) observed 1030 UTC 18 January 2019
Temperature: 29.0°C (84°F)
Dewpoint: 18.0°C (64°F) [RH = 52%]
Pressure (altimeter): 29.94 inches Hg (1014.0 mb)
Winds: from the W (260 degrees) at 5 MPH (4 knots; 2.1 m/s)
Visibility: 6 or more miles (10+ km)
Ceiling: at least 12,000 feet AGL
Clouds: scattered clouds at 3500 feet AGL
Weather: no significant weather observed at this time

METAR text: VTCC 181000Z 19003KT 9999 SCT035 29/17 Q1014 NOSIG
Conditions at: VTCC (CHIANG MAI(CIV/A, TH) observed 1000 UTC 18 January 2019
Temperature: 29.0°C (84°F)
Dewpoint: 17.0°C (63°F) [RH = 48%]
Pressure (altimeter): 29.94 inches Hg (1014.0 mb)
Winds: from the S (190 degrees) at 3 MPH (3 knots; 1.5 m/s)
Visibility: 6 or more miles (10+ km)
Ceiling: at least 12,000 feet AGL
Clouds: scattered clouds at 3500 feet AGL
Weather: no significant weather observed at this time

METAR text: VTCC 180930Z 17005KT 9999 FEW035 30/17 Q1014 NOSIG
Conditions at: VTCC (CHIANG MAI(CIV/A, TH) observed 0930 UTC 18 January 2019
Temperature: 30.0°C (86°F)
Dewpoint: 17.0°C (63°F) [RH = 46%]
Pressure (altimeter): 29.94 inches Hg (1014.0 mb)
Winds: from the S (170 degrees) at 6 MPH (5 knots; 2.6 m/s)
Visibility: 6 or more miles (10+ km)
Ceiling: at least 12,000 feet AGL
Clouds: few clouds at 3500 feet AGL
Weather: no significant weather observed at this time

METAR text: VTCC 180900Z 22007KT 9999 FEW035 30/17 Q1014 NOSIG
Conditions at: VTCC (CHIANG MAI(CIV/A, TH) observed 0900 UTC 18 January 2019
Temperature: 30.0°C (86°F)
Dewpoint: 17.0°C (63°F) [RH = 46%]
Pressure (altimeter): 29.94 inches Hg (1014.0 mb)
Winds: from the SW (220 degrees) at 8 MPH (7 knots; 3.6 m/s)
Visibility: 6 or more miles (10+ km)
Ceiling: at least 12,000 feet AGL
Clouds: few clouds at 3500 feet AGL
Weather: no significant weather observed at this time

METAR text: VTCC 180830Z 15005KT 9999 FEW035 30/18 Q1014 NOSIG
Conditions at: VTCC (CHIANG MAI(CIV/A, TH) observed 0830 UTC 18 January 2019
Temperature: 30.0°C (86°F)
Dewpoint: 18.0°C (64°F) [RH = 49%]
Pressure (altimeter): 29.94 inches Hg (1014.0 mb)
Winds: from the SSE (150 degrees) at 6 MPH (5 knots; 2.6 m/s)
Visibility: 6 or more miles (10+ km)
Ceiling: at least 12,000 feet AGL
Clouds: few clouds at 3500 feet AGL
Weather: no significant weather observed at this time

METAR text: VTCC 180800Z 22005KT 9999 FEW035 31/18 Q1014 NOSIG
Conditions at: VTCC (CHIANG MAI(CIV/A, TH) observed 0800 UTC 18 January 2019
Temperature: 31.0°C (88°F)
Dewpoint: 18.0°C (64°F) [RH = 46%]
Pressure (altimeter): 29.94 inches Hg (1014.0 mb)
Winds: from the SW (220 degrees) at 6 MPH (5 knots; 2.6 m/s)
Visibility: 6 or more miles (10+ km)
Ceiling: at least 12,000 feet AGL
Clouds: few clouds at 3500 feet AGL
Weather: no significant weather observed at this time

METAR text: VTCC 180730Z 20005KT 9999 FEW035 30/18 Q1015 NOSIG
Conditions at: VTCC (CHIANG MAI(CIV/A, TH) observed 0730 UTC 18 January 2019
Temperature: 30.0°C (86°F)
Dewpoint: 18.0°C (64°F) [RH = 49%]
Pressure (altimeter): 29.97 inches Hg (1015.0 mb)
Winds: from the SSW (200 degrees) at 6 MPH (5 knots; 2.6 m/s)
Visibility: 6 or more miles (10+ km)
Ceiling: at least 12,000 feet AGL
Clouds: few clouds at 3500 feet AGL
Weather: no significant weather observed at this time

METAR text: VTCC 180700Z 20006KT 9999 SCT035 30/18 Q1015 NOSIG
Conditions at: VTCC (CHIANG MAI(CIV/A, TH) observed 0700 UTC 18 January 2019
Temperature: 30.0°C (86°F)
Dewpoint: 18.0°C (64°F) [RH = 49%]
Pressure (altimeter): 29.97 inches Hg (1015.0 mb)
Winds: from the SSW (200 degrees) at 7 MPH (6 knots; 3.1 m/s)
Visibility: 6 or more miles (10+ km)
Ceiling: at least 12,000 feet AGL
Clouds: scattered clouds at 3500 feet AGL
Weather: no significant weather observed at this time

METAR text: VTCC 180630Z 17005KT 9999 SCT035 29/17 Q1016 NOSIG
Conditions at: VTCC (CHIANG MAI(CIV/A, TH) observed 0630 UTC 18 January 2019
Temperature: 29.0°C (84°F)
Dewpoint: 17.0°C (63°F) [RH = 48%]
Pressure (altimeter): 30.00 inches Hg (1016.0 mb)
Winds: from the S (170 degrees) at 6 MPH (5 knots; 2.6 m/s)
Visibility: 6 or more miles (10+ km)
Ceiling: at least 12,000 feet AGL
Clouds: scattered clouds at 3500 feet AGL
Weather: no significant weather observed at this time

METAR text: VTCC 180600Z 17008KT 9999 SCT035 29/17 Q1017 NOSIG
Conditions at: VTCC (CHIANG MAI(CIV/A, TH) observed 0600 UTC 18 January 2019
Temperature: 29.0°C (84°F)
Dewpoint: 17.0°C (63°F) [RH = 48%]
Pressure (altimeter): 30.03 inches Hg (1017.0 mb)
Winds: from the S (170 degrees) at 9 MPH (8 knots; 4.1 m/s)
Visibility: 6 or more miles (10+ km)
Ceiling: at least 12,000 feet AGL
Clouds: scattered clouds at 3500 feet AGL
Weather: no significant weather observed at this time

METAR text: VTCC 180530Z 21005KT 9999 FEW035 28/18 Q1017 NOSIG
Conditions at: VTCC (CHIANG MAI(CIV/A, TH) observed 0530 UTC 18 January 2019
Temperature: 28.0°C (82°F)
Dewpoint: 18.0°C (64°F) [RH = 55%]
Pressure (altimeter): 30.03 inches Hg (1017.0 mb)
Winds: from the SSW (210 degrees) at 6 MPH (5 knots; 2.6 m/s)
Visibility: 6 or more miles (10+ km)
Ceiling: at least 12,000 feet AGL
Clouds: few clouds at 3500 feet AGL
Weather: no significant weather observed at this time

METAR text: VTCC 180430Z 13003KT 9999 FEW035 28/19 Q1019 NOSIG
Conditions at: VTCC (CHIANG MAI(CIV/A, TH) observed 0430 UTC 18 January 2019
Temperature: 28.0°C (82°F)
Dewpoint: 19.0°C (66°F) [RH = 58%]
Pressure (altimeter): 30.09 inches Hg (1019.0 mb)
Winds: from the SE (130 degrees) at 3 MPH (3 knots; 1.5 m/s)
Visibility: 6 or more miles (10+ km)
Ceiling: at least 12,000 feet AGL
Clouds: few clouds at 3500 feet AGL
Weather: no significant weather observed at this time

METAR text: VTCC 180400Z 00000KT 9999 FEW035 27/20 Q1019 NOSIG
Conditions at: VTCC (CHIANG MAI(CIV/A, TH) observed 0400 UTC 18 January 2019
Temperature: 27.0°C (81°F)
Dewpoint: 20.0°C (68°F) [RH = 66%]
Pressure (altimeter): 30.09 inches Hg (1019.0 mb)
Winds: calm
Visibility: 6 or more miles (10+ km)
Ceiling: at least 12,000 feet AGL
Clouds: few clouds at 3500 feet AGL
Weather: no significant weather observed at this time

METAR text: VTCC 180330Z 10003KT 9999 FEW035 26/19 Q1019 NOSIG
Conditions at: VTCC (CHIANG MAI(CIV/A, TH) observed 0330 UTC 18 January 2019
Temperature: 26.0°C (79°F)
Dewpoint: 19.0°C (66°F) [RH = 65%]
Pressure (altimeter): 30.09 inches Hg (1019.0 mb)
Winds: from the E (100 degrees) at 3 MPH (3 knots; 1.5 m/s)
Visibility: 6 or more miles (10+ km)
Ceiling: at least 12,000 feet AGL
Clouds: few clouds at 3500 feet AGL
Weather: no significant weather observed at this time

METAR text: VTCC 180300Z 01003KT 300V090 FEW035 24/19 Q1019 NOSIG
Conditions at: VTCC (CHIANG MAI(CIV/A, TH) observed 0300 UTC 18 January 2019
Temperature: 24.0°C (75°F)
Dewpoint: 19.0°C (66°F) [RH = 74%]
Pressure (altimeter): 30.09 inches Hg (1019.0 mb)
Winds: from the N (10 degrees) at 3 MPH (3 knots; 1.5 m/s)
Visibility: missing
Ceiling: at least 12,000 feet AGL
Clouds: few clouds at 3500 feet AGL
Weather: no significant weather observed at this time

Forecast for: VTCC (CHIANG MAI(CIV/A, TH)
Text: TAF VTCC 191100Z 1912/2018 30005KT 9999 FEW035
Forecast period: 1200 UTC 19 January 2019 to 1800 UTC 20 January 2019
Forecast type: FROM: standard forecast or significant change
Winds: from the WNW (300 degrees) at 6 MPH (5 knots; 2.6 m/s)
Visibility: 6 or more miles 10+ km)
Ceiling: at least 12,000 feet AGL
Clouds: few clouds at 3500 feet AGL
Weather: no significant weather forecast for this period